sensor_id;sensor_type;location;lat;lon;timestamp;P1;durP1;ratioP1;P2;durP2;ratioP2
142;SDS011;63667;49.046;8.468;2023-04-25T00:01:21;14.37;;;7.90;;
142;SDS011;63667;49.046;8.468;2023-04-25T00:03:47;14.10;;;7.50;;
142;SDS011;63667;49.046;8.468;2023-04-25T00:06:15;14.57;;;8.20;;
142;SDS011;63667;49.046;8.468;2023-04-25T00:08:43;13.43;;;7.97;;
142;SDS011;63667;49.046;8.468;2023-04-25T00:11:09;12.97;;;8.10;;
142;SDS011;63667;49.046;8.468;2023-04-25T00:13:36;13.83;;;7.83;;
142;SDS011;63667;49.046;8.468;2023-04-25T00:16:03;13.47;;;8.10;;
142;SDS011;63667;49.046;8.468;2023-04-25T00:18:29;19.90;;;9.10;;
142;SDS011;63667;49.046;8.468;2023-04-25T00:20:58;15.07;;;8.20;;
142;SDS011;63667;49.046;8.468;2023-04-25T00:23:25;18.97;;;8.10;;
142;SDS011;63667;49.046;8.468;2023-04-25T00:25:53;16.73;;;8.90;;
142;SDS011;63667;49.046;8.468;2023-04-25T00:28:21;14.60;;;7.60;;
142;SDS011;63667;49.046;8.468;2023-04-25T00:30:48;14.03;;;7.77;;
142;SDS011;63667;49.046;8.468;2023-04-25T00:33:16;15.87;;;8.90;;
142;SDS011;63667;49.046;8.468;2023-04-25T00:35:43;13.90;;;8.13;;
142;SDS011;63667;49.046;8.468;2023-04-25T00:38:11;16.70;;;8.70;;
142;SDS011;63667;49.046;8.468;2023-04-25T00:40:38;14.10;;;8.40;;
142;SDS011;63667;49.046;8.468;2023-04-25T00:43:09;13.07;;;7.77;;
142;SDS011;63667;49.046;8.468;2023-04-25T00:45:37;12.17;;;7.90;;
142;SDS011;63667;49.046;8.468;2023-04-25T00:48:05;12.23;;;7.73;;
142;SDS011;63667;49.046;8.468;2023-04-25T00:50:33;14.70;;;8.13;;
142;SDS011;63667;49.046;8.468;2023-04-25T00:53:00;14.87;;;8.23;;
142;SDS011;63667;49.046;8.468;2023-04-25T00:55:27;12.93;;;7.57;;
142;SDS011;63667;49.046;8.468;2023-04-25T00:57:55;14.47;;;7.53;;
142;SDS011;63667;49.046;8.468;2023-04-25T01:00:22;13.13;;;8.03;;
142;SDS011;63667;49.046;8.468;2023-04-25T01:02:50;12.57;;;8.10;;
142;SDS011;63667;49.046;8.468;2023-04-25T01:05:18;12.17;;;7.70;;
142;SDS011;63667;49.046;8.468;2023-04-25T01:07:45;11.57;;;6.73;;
142;SDS011;63667;49.046;8.468;2023-04-25T01:10:13;11.10;;;6.90;;
142;SDS011;63667;49.046;8.468;2023-04-25T01:12:41;12.90;;;6.87;;
142;SDS011;63667;49.046;8.468;2023-04-25T01:15:09;11.90;;;7.40;;
142;SDS011;63667;49.046;8.468;2023-04-25T01:17:37;13.67;;;7.47;;
142;SDS011;63667;49.046;8.468;2023-04-25T01:20:06;12.40;;;7.60;;
142;SDS011;63667;49.046;8.468;2023-04-25T01:22:35;11.00;;;5.97;;
142;SDS011;63667;49.046;8.468;2023-04-25T01:25:02;13.73;;;7.63;;
142;SDS011;63667;49.046;8.468;2023-04-25T01:27:31;10.20;;;7.10;;
142;SDS011;63667;49.046;8.468;2023-04-25T01:29:58;16.47;;;6.87;;
142;SDS011;63667;49.046;8.468;2023-04-25T01:32:26;12.57;;;7.30;;
142;SDS011;63667;49.046;8.468;2023-04-25T01:34:53;16.23;;;7.40;;
142;SDS011;63667;49.046;8.468;2023-04-25T01:37:22;11.73;;;7.47;;
142;SDS011;63667;49.046;8.468;2023-04-25T01:39:50;14.07;;;7.80;;
142;SDS011;63667;49.046;8.468;2023-04-25T01:42:18;10.37;;;6.30;;
142;SDS011;63667;49.046;8.468;2023-04-25T01:44:45;11.80;;;7.47;;
142;SDS011;63667;49.046;8.468;2023-04-25T01:47:12;13.30;;;7.20;;
142;SDS011;63667;49.046;8.468;2023-04-25T01:49:39;12.10;;;7.20;;
142;SDS011;63667;49.046;8.468;2023-04-25T01:52:06;11.87;;;7.10;;
142;SDS011;63667;49.046;8.468;2023-04-25T01:54:34;13.97;;;7.20;;
142;SDS011;63667;49.046;8.468;2023-04-25T01:57:01;11.93;;;7.03;;
142;SDS011;63667;49.046;8.468;2023-04-25T01:59:29;13.57;;;7.20;;
142;SDS011;63667;49.046;8.468;2023-04-25T02:01:56;11.53;;;7.33;;
142;SDS011;63667;49.046;8.468;2023-04-25T02:04:23;12.50;;;7.07;;
142;SDS011;63667;49.046;8.468;2023-04-25T02:06:51;13.20;;;7.67;;
142;SDS011;63667;49.046;8.468;2023-04-25T02:09:18;10.83;;;6.77;;
142;SDS011;63667;49.046;8.468;2023-04-25T02:11:45;12.00;;;7.20;;
142;SDS011;63667;49.046;8.468;2023-04-25T02:14:12;11.90;;;7.30;;
142;SDS011;63667;49.046;8.468;2023-04-25T02:16:39;12.30;;;6.93;;
142;SDS011;63667;49.046;8.468;2023-04-25T02:19:09;10.43;;;6.67;;
142;SDS011;63667;49.046;8.468;2023-04-25T02:21:36;10.00;;;6.70;;
142;SDS011;63667;49.046;8.468;2023-04-25T02:24:04;13.17;;;7.90;;
142;SDS011;63667;49.046;8.468;2023-04-25T02:26:32;14.93;;;7.87;;
142;SDS011;63667;49.046;8.468;2023-04-25T02:29:00;11.67;;;7.33;;
142;SDS011;63667;49.046;8.468;2023-04-25T02:31:27;14.20;;;7.70;;
142;SDS011;63667;49.046;8.468;2023-04-25T02:33:55;13.97;;;7.70;;
142;SDS011;63667;49.046;8.468;2023-04-25T02:36:21;12.53;;;7.57;;
142;SDS011;63667;49.046;8.468;2023-04-25T02:38:49;14.90;;;7.80;;
142;SDS011;63667;49.046;8.468;2023-04-25T02:41:17;14.60;;;8.20;;
142;SDS011;63667;49.046;8.468;2023-04-25T02:43:46;15.10;;;8.33;;
142;SDS011;63667;49.046;8.468;2023-04-25T02:46:13;17.03;;;8.23;;
142;SDS011;63667;49.046;8.468;2023-04-25T02:48:40;14.47;;;7.80;;
142;SDS011;63667;49.046;8.468;2023-04-25T02:51:07;14.73;;;8.20;;
142;SDS011;63667;49.046;8.468;2023-04-25T02:53:34;14.30;;;8.47;;
142;SDS011;63667;49.046;8.468;2023-04-25T02:56:02;14.73;;;8.83;;
142;SDS011;63667;49.046;8.468;2023-04-25T02:58:30;15.63;;;8.93;;
142;SDS011;63667;49.046;8.468;2023-04-25T03:00:57;17.30;;;9.23;;
142;SDS011;63667;49.046;8.468;2023-04-25T03:03:24;15.93;;;9.30;;
142;SDS011;63667;49.046;8.468;2023-04-25T03:05:51;15.90;;;8.60;;
142;SDS011;63667;49.046;8.468;2023-04-25T03:08:18;14.83;;;8.37;;
142;SDS011;63667;49.046;8.468;2023-04-25T03:10:46;15.50;;;8.77;;
142;SDS011;63667;49.046;8.468;2023-04-25T03:13:15;16.83;;;9.17;;
142;SDS011;63667;49.046;8.468;2023-04-25T03:15:43;20.77;;;9.93;;
142;SDS011;63667;49.046;8.468;2023-04-25T03:18:10;23.47;;;9.67;;
142;SDS011;63667;49.046;8.468;2023-04-25T03:20:37;16.27;;;9.40;;
142;SDS011;63667;49.046;8.468;2023-04-25T03:23:06;21.10;;;10.20;;
142;SDS011;63667;49.046;8.468;2023-04-25T03:25:33;17.20;;;9.23;;
142;SDS011;63667;49.046;8.468;2023-04-25T03:28:01;19.23;;;10.40;;
142;SDS011;63667;49.046;8.468;2023-04-25T03:30:28;19.03;;;10.30;;
142;SDS011;63667;49.046;8.468;2023-04-25T03:32:56;19.33;;;9.70;;
142;SDS011;63667;49.046;8.468;2023-04-25T03:35:23;18.10;;;9.10;;
142;SDS011;63667;49.046;8.468;2023-04-25T03:37:50;19.77;;;10.27;;
142;SDS011;63667;49.046;8.468;2023-04-25T03:40:18;18.93;;;9.17;;
142;SDS011;63667;49.046;8.468;2023-04-25T03:42:46;27.43;;;10.13;;
142;SDS011;63667;49.046;8.468;2023-04-25T03:45:13;22.83;;;10.57;;
142;SDS011;63667;49.046;8.468;2023-04-25T03:47:41;19.90;;;11.00;;
142;SDS011;63667;49.046;8.468;2023-04-25T03:50:08;16.27;;;9.60;;
142;SDS011;63667;49.046;8.468;2023-04-25T03:52:36;21.80;;;10.80;;
142;SDS011;63667;49.046;8.468;2023-04-25T03:55:03;20.40;;;10.03;;
142;SDS011;63667;49.046;8.468;2023-04-25T03:57:32;19.70;;;10.60;;
142;SDS011;63667;49.046;8.468;2023-04-25T03:59:59;18.30;;;10.10;;
142;SDS011;63667;49.046;8.468;2023-04-25T04:02:27;21.90;;;10.83;;
142;SDS011;63667;49.046;8.468;2023-04-25T04:04:55;21.57;;;10.27;;
142;SDS011;63667;49.046;8.468;2023-04-25T04:07:22;19.33;;;10.53;;
142;SDS011;63667;49.046;8.468;2023-04-25T04:09:50;19.83;;;10.23;;
142;SDS011;63667;49.046;8.468;2023-04-25T04:12:17;30.33;;;9.70;;
142;SDS011;63667;49.046;8.468;2023-04-25T04:14:45;23.20;;;10.60;;
142;SDS011;63667;49.046;8.468;2023-04-25T04:17:13;18.63;;;9.30;;
142;SDS011;63667;49.046;8.468;2023-04-25T04:19:40;17.00;;;8.80;;
142;SDS011;63667;49.046;8.468;2023-04-25T04:22:07;22.43;;;10.00;;
142;SDS011;63667;49.046;8.468;2023-04-25T04:24:34;20.33;;;10.83;;
142;SDS011;63667;49.046;8.468;2023-04-25T04:27:02;19.60;;;9.20;;
142;SDS011;63667;49.046;8.468;2023-04-25T04:29:30;18.27;;;9.50;;
142;SDS011;63667;49.046;8.468;2023-04-25T04:32:05;21.40;;;9.50;;
142;SDS011;63667;49.046;8.468;2023-04-25T04:34:34;16.37;;;8.77;;
142;SDS011;63667;49.046;8.468;2023-04-25T04:37:02;14.93;;;8.87;;
142;SDS011;63667;49.046;8.468;2023-04-25T04:39:29;18.93;;;9.47;;
142;SDS011;63667;49.046;8.468;2023-04-25T04:41:57;15.03;;;9.40;;
142;SDS011;63667;49.046;8.468;2023-04-25T04:44:24;17.33;;;9.10;;
142;SDS011;63667;49.046;8.468;2023-04-25T04:46:52;17.77;;;9.20;;
142;SDS011;63667;49.046;8.468;2023-04-25T04:49:20;18.40;;;10.10;;
142;SDS011;63667;49.046;8.468;2023-04-25T04:51:48;15.13;;;8.10;;
142;SDS011;63667;49.046;8.468;2023-04-25T04:54:15;14.90;;;8.93;;
142;SDS011;63667;49.046;8.468;2023-04-25T04:56:42;14.40;;;8.07;;
142;SDS011;63667;49.046;8.468;2023-04-25T04:59:10;22.53;;;9.17;;
142;SDS011;63667;49.046;8.468;2023-04-25T05:01:37;28.77;;;8.73;;
142;SDS011;63667;49.046;8.468;2023-04-25T05:04:04;16.77;;;9.27;;
142;SDS011;63667;49.046;8.468;2023-04-25T05:06:32;20.30;;;9.70;;
142;SDS011;63667;49.046;8.468;2023-04-25T05:09:00;20.67;;;9.57;;
142;SDS011;63667;49.046;8.468;2023-04-25T05:11:28;16.73;;;9.50;;
142;SDS011;63667;49.046;8.468;2023-04-25T05:13:56;19.83;;;9.23;;
142;SDS011;63667;49.046;8.468;2023-04-25T05:16:22;24.67;;;10.87;;
142;SDS011;63667;49.046;8.468;2023-04-25T05:18:50;17.00;;;9.90;;
142;SDS011;63667;49.046;8.468;2023-04-25T05:21:18;14.17;;;8.60;;
142;SDS011;63667;49.046;8.468;2023-04-25T05:23:44;17.30;;;9.43;;
142;SDS011;63667;49.046;8.468;2023-04-25T05:26:12;17.77;;;9.40;;
142;SDS011;63667;49.046;8.468;2023-04-25T05:28:41;12.83;;;8.27;;
142;SDS011;63667;49.046;8.468;2023-04-25T05:31:11;14.83;;;8.60;;
142;SDS011;63667;49.046;8.468;2023-04-25T05:33:38;14.43;;;8.87;;
142;SDS011;63667;49.046;8.468;2023-04-25T05:36:05;17.07;;;9.37;;
142;SDS011;63667;49.046;8.468;2023-04-25T05:38:32;20.47;;;9.20;;
142;SDS011;63667;49.046;8.468;2023-04-25T05:40:58;12.70;;;8.10;;
142;SDS011;63667;49.046;8.468;2023-04-25T05:43:25;13.87;;;8.00;;
142;SDS011;63667;49.046;8.468;2023-04-25T05:45:51;14.20;;;7.73;;
142;SDS011;63667;49.046;8.468;2023-04-25T05:48:18;14.47;;;8.73;;
142;SDS011;63667;49.046;8.468;2023-04-25T05:50:44;15.83;;;8.83;;
142;SDS011;63667;49.046;8.468;2023-04-25T05:53:11;12.80;;;7.83;;
142;SDS011;63667;49.046;8.468;2023-04-25T05:55:38;10.20;;;6.77;;
142;SDS011;63667;49.046;8.468;2023-04-25T05:58:06;11.30;;;7.13;;
142;SDS011;63667;49.046;8.468;2023-04-25T06:00:33;10.97;;;7.43;;
142;SDS011;63667;49.046;8.468;2023-04-25T06:02:59;9.80;;;6.43;;
142;SDS011;63667;49.046;8.468;2023-04-25T06:05:26;13.70;;;7.57;;
142;SDS011;63667;49.046;8.468;2023-04-25T06:07:53;13.67;;;7.60;;
142;SDS011;63667;49.046;8.468;2023-04-25T06:10:21;12.40;;;7.80;;
142;SDS011;63667;49.046;8.468;2023-04-25T06:12:48;12.43;;;7.60;;
142;SDS011;63667;49.046;8.468;2023-04-25T06:15:14;12.20;;;7.20;;
142;SDS011;63667;49.046;8.468;2023-04-25T06:17:41;12.13;;;8.10;;
142;SDS011;63667;49.046;8.468;2023-04-25T06:20:08;14.80;;;7.63;;
142;SDS011;63667;49.046;8.468;2023-04-25T06:22:34;12.87;;;7.47;;
142;SDS011;63667;49.046;8.468;2023-04-25T06:25:01;13.63;;;7.40;;
142;SDS011;63667;49.046;8.468;2023-04-25T06:27:30;14.40;;;7.63;;
142;SDS011;63667;49.046;8.468;2023-04-25T06:29:57;12.57;;;7.87;;
142;SDS011;63667;49.046;8.468;2023-04-25T06:32:24;13.70;;;7.80;;
142;SDS011;63667;49.046;8.468;2023-04-25T06:34:53;12.77;;;7.93;;
142;SDS011;63667;49.046;8.468;2023-04-25T06:37:21;13.53;;;7.83;;
142;SDS011;63667;49.046;8.468;2023-04-25T06:39:47;13.50;;;8.30;;
142;SDS011;63667;49.046;8.468;2023-04-25T06:42:15;10.70;;;7.50;;
142;SDS011;63667;49.046;8.468;2023-04-25T06:44:42;13.43;;;8.23;;
142;SDS011;63667;49.046;8.468;2023-04-25T06:47:09;15.47;;;9.17;;
142;SDS011;63667;49.046;8.468;2023-04-25T06:49:37;13.70;;;7.93;;
142;SDS011;63667;49.046;8.468;2023-04-25T06:52:04;14.80;;;8.10;;
142;SDS011;63667;49.046;8.468;2023-04-25T06:54:32;16.70;;;8.90;;
142;SDS011;63667;49.046;8.468;2023-04-25T06:56:59;13.97;;;8.83;;
142;SDS011;63667;49.046;8.468;2023-04-25T06:59:27;16.33;;;8.50;;
142;SDS011;63667;49.046;8.468;2023-04-25T07:01:54;16.43;;;8.97;;
142;SDS011;63667;49.046;8.468;2023-04-25T07:04:21;15.07;;;8.50;;
142;SDS011;63667;49.046;8.468;2023-04-25T07:06:48;18.20;;;9.20;;
142;SDS011;63667;49.046;8.468;2023-04-25T07:09:16;16.03;;;8.53;;
142;SDS011;63667;49.046;8.468;2023-04-25T07:11:43;17.07;;;9.23;;
142;SDS011;63667;49.046;8.468;2023-04-25T07:14:11;16.40;;;8.67;;
142;SDS011;63667;49.046;8.468;2023-04-25T07:16:38;16.80;;;8.50;;
142;SDS011;63667;49.046;8.468;2023-04-25T07:19:06;14.23;;;8.83;;
142;SDS011;63667;49.046;8.468;2023-04-25T07:21:33;16.80;;;9.13;;
142;SDS011;63667;49.046;8.468;2023-04-25T07:24:02;16.30;;;9.20;;
142;SDS011;63667;49.046;8.468;2023-04-25T07:26:29;13.40;;;7.83;;
142;SDS011;63667;49.046;8.468;2023-04-25T07:28:59;15.23;;;8.67;;
142;SDS011;63667;49.046;8.468;2023-04-25T07:31:26;15.73;;;8.93;;
142;SDS011;63667;49.046;8.468;2023-04-25T07:33:54;17.80;;;10.23;;
142;SDS011;63667;49.046;8.468;2023-04-25T07:36:21;16.13;;;9.37;;
142;SDS011;63667;49.046;8.468;2023-04-25T07:38:48;18.93;;;10.23;;
142;SDS011;63667;49.046;8.468;2023-04-25T07:41:15;18.50;;;10.07;;
142;SDS011;63667;49.046;8.468;2023-04-25T07:43:43;22.47;;;10.50;;
142;SDS011;63667;49.046;8.468;2023-04-25T07:46:10;18.17;;;10.13;;
142;SDS011;63667;49.046;8.468;2023-04-25T07:48:38;15.90;;;9.30;;
142;SDS011;63667;49.046;8.468;2023-04-25T07:51:05;19.83;;;9.93;;
142;SDS011;63667;49.046;8.468;2023-04-25T07:53:33;18.07;;;9.50;;
142;SDS011;63667;49.046;8.468;2023-04-25T07:56:01;18.37;;;9.63;;
142;SDS011;63667;49.046;8.468;2023-04-25T07:58:28;19.40;;;9.90;;
142;SDS011;63667;49.046;8.468;2023-04-25T08:00:56;15.73;;;9.67;;
142;SDS011;63667;49.046;8.468;2023-04-25T08:03:23;17.40;;;9.57;;
142;SDS011;63667;49.046;8.468;2023-04-25T08:05:50;17.23;;;10.10;;
142;SDS011;63667;49.046;8.468;2023-04-25T08:08:18;22.00;;;9.70;;
142;SDS011;63667;49.046;8.468;2023-04-25T08:10:45;18.87;;;10.10;;
142;SDS011;63667;49.046;8.468;2023-04-25T08:13:14;17.07;;;10.10;;
142;SDS011;63667;49.046;8.468;2023-04-25T08:15:41;20.23;;;9.93;;
142;SDS011;63667;49.046;8.468;2023-04-25T08:18:19;19.77;;;9.73;;
142;SDS011;63667;49.046;8.468;2023-04-25T08:20:46;18.60;;;9.70;;
142;SDS011;63667;49.046;8.468;2023-04-25T08:23:13;19.70;;;10.27;;
142;SDS011;63667;49.046;8.468;2023-04-25T08:25:40;19.37;;;10.33;;
142;SDS011;63667;49.046;8.468;2023-04-25T08:28:08;23.00;;;11.37;;
142;SDS011;63667;49.046;8.468;2023-04-25T08:30:36;20.70;;;11.23;;
142;SDS011;63667;49.046;8.468;2023-04-25T08:33:03;22.10;;;12.13;;
142;SDS011;63667;49.046;8.468;2023-04-25T08:35:31;21.27;;;11.97;;
142;SDS011;63667;49.046;8.468;2023-04-25T08:37:58;19.30;;;10.93;;
142;SDS011;63667;49.046;8.468;2023-04-25T08:40:27;20.53;;;11.80;;
142;SDS011;63667;49.046;8.468;2023-04-25T08:42:56;20.57;;;11.43;;
142;SDS011;63667;49.046;8.468;2023-04-25T08:45:25;21.07;;;11.77;;
142;SDS011;63667;49.046;8.468;2023-04-25T08:47:53;19.33;;;11.13;;
142;SDS011;63667;49.046;8.468;2023-04-25T08:50:22;21.37;;;12.10;;
142;SDS011;63667;49.046;8.468;2023-04-25T08:52:50;19.40;;;11.80;;
142;SDS011;63667;49.046;8.468;2023-04-25T08:55:20;24.10;;;12.73;;
142;SDS011;63667;49.046;8.468;2023-04-25T08:57:47;27.00;;;12.57;;
142;SDS011;63667;49.046;8.468;2023-04-25T09:00:14;24.43;;;12.90;;
142;SDS011;63667;49.046;8.468;2023-04-25T09:02:43;28.07;;;13.43;;
142;SDS011;63667;49.046;8.468;2023-04-25T09:05:11;26.10;;;14.20;;
142;SDS011;63667;49.046;8.468;2023-04-25T09:07:39;28.20;;;15.00;;
142;SDS011;63667;49.046;8.468;2023-04-25T09:10:06;26.63;;;13.07;;
142;SDS011;63667;49.046;8.468;2023-04-25T09:12:34;24.13;;;12.73;;
142;SDS011;63667;49.046;8.468;2023-04-25T09:15:03;29.07;;;14.20;;
142;SDS011;63667;49.046;8.468;2023-04-25T09:17:33;29.17;;;14.30;;
142;SDS011;63667;49.046;8.468;2023-04-25T09:22:34;30.67;;;13.70;;
142;SDS011;63667;49.046;8.468;2023-04-25T09:25:02;27.87;;;14.67;;
142;SDS011;63667;49.046;8.468;2023-04-25T09:27:30;33.37;;;15.70;;
142;SDS011;63667;49.046;8.468;2023-04-25T09:29:58;31.20;;;14.23;;
142;SDS011;63667;49.046;8.468;2023-04-25T09:32:26;29.87;;;15.57;;
142;SDS011;63667;49.046;8.468;2023-04-25T09:34:54;39.77;;;16.00;;
142;SDS011;63667;49.046;8.468;2023-04-25T09:39:53;29.90;;;14.70;;
142;SDS011;63667;49.046;8.468;2023-04-25T09:42:21;42.57;;;17.13;;
142;SDS011;63667;49.046;8.468;2023-04-25T09:44:49;32.10;;;14.83;;
142;SDS011;63667;49.046;8.468;2023-04-25T09:47:17;35.67;;;15.10;;
142;SDS011;63667;49.046;8.468;2023-04-25T09:49:47;39.40;;;15.53;;
142;SDS011;63667;49.046;8.468;2023-04-25T09:52:16;35.60;;;14.63;;
142;SDS011;63667;49.046;8.468;2023-04-25T09:54:46;34.37;;;15.53;;
142;SDS011;63667;49.046;8.468;2023-04-25T09:57:23;29.43;;;14.47;;
142;SDS011;63667;49.046;8.468;2023-04-25T09:59:53;32.07;;;14.50;;
142;SDS011;63667;49.046;8.468;2023-04-25T10:02:22;35.53;;;15.83;;
142;SDS011;63667;49.046;8.468;2023-04-25T10:04:50;40.23;;;14.90;;
142;SDS011;63667;49.046;8.468;2023-04-25T10:07:18;37.27;;;17.60;;
142;SDS011;63667;49.046;8.468;2023-04-25T10:09:47;34.70;;;15.30;;
142;SDS011;63667;49.046;8.468;2023-04-25T10:12:16;29.67;;;14.67;;
142;SDS011;63667;49.046;8.468;2023-04-25T10:14:43;35.10;;;15.70;;
142;SDS011;63667;49.046;8.468;2023-04-25T10:17:11;38.33;;;15.83;;
142;SDS011;63667;49.046;8.468;2023-04-25T10:19:39;35.73;;;16.87;;
142;SDS011;63667;49.046;8.468;2023-04-25T10:24:39;33.70;;;17.33;;
142;SDS011;63667;49.046;8.468;2023-04-25T10:27:07;35.40;;;17.17;;
142;SDS011;63667;49.046;8.468;2023-04-25T10:29:34;34.70;;;16.87;;
142;SDS011;63667;49.046;8.468;2023-04-25T10:32:01;32.80;;;14.63;;
142;SDS011;63667;49.046;8.468;2023-04-25T10:34:41;41.90;;;15.93;;
142;SDS011;63667;49.046;8.468;2023-04-25T10:37:24;30.57;;;13.60;;
142;SDS011;63667;49.046;8.468;2023-04-25T10:39:51;36.87;;;14.73;;
142;SDS011;63667;49.046;8.468;2023-04-25T10:42:19;34.43;;;15.00;;
142;SDS011;63667;49.046;8.468;2023-04-25T10:45:01;35.53;;;15.20;;
142;SDS011;63667;49.046;8.468;2023-04-25T10:47:35;31.40;;;14.20;;
142;SDS011;63667;49.046;8.468;2023-04-25T10:50:06;34.87;;;15.50;;
142;SDS011;63667;49.046;8.468;2023-04-25T10:52:34;32.33;;;14.57;;
142;SDS011;63667;49.046;8.468;2023-04-25T10:55:04;30.40;;;14.23;;
142;SDS011;63667;49.046;8.468;2023-04-25T10:57:42;40.40;;;15.83;;
142;SDS011;63667;49.046;8.468;2023-04-25T11:00:15;43.20;;;16.83;;
142;SDS011;63667;49.046;8.468;2023-04-25T11:02:46;39.37;;;16.23;;
142;SDS011;63667;49.046;8.468;2023-04-25T11:05:22;31.80;;;15.23;;
142;SDS011;63667;49.046;8.468;2023-04-25T11:07:50;48.50;;;16.43;;
142;SDS011;63667;49.046;8.468;2023-04-25T11:10:18;32.73;;;13.93;;
142;SDS011;63667;49.046;8.468;2023-04-25T11:12:46;39.43;;;14.80;;
142;SDS011;63667;49.046;8.468;2023-04-25T11:15:13;29.43;;;13.00;;
142;SDS011;63667;49.046;8.468;2023-04-25T11:17:40;30.60;;;12.93;;
142;SDS011;63667;49.046;8.468;2023-04-25T11:20:08;42.93;;;14.83;;
142;SDS011;63667;49.046;8.468;2023-04-25T11:22:38;36.30;;;13.90;;
142;SDS011;63667;49.046;8.468;2023-04-25T11:25:09;30.47;;;13.30;;
142;SDS011;63667;49.046;8.468;2023-04-25T11:27:37;35.37;;;13.67;;
142;SDS011;63667;49.046;8.468;2023-04-25T11:30:14;26.97;;;12.70;;
142;SDS011;63667;49.046;8.468;2023-04-25T11:32:57;28.50;;;13.40;;
142;SDS011;63667;49.046;8.468;2023-04-25T11:35:25;30.03;;;12.13;;
142;SDS011;63667;49.046;8.468;2023-04-25T11:37:52;22.80;;;11.77;;
142;SDS011;63667;49.046;8.468;2023-04-25T11:40:19;33.33;;;12.90;;
142;SDS011;63667;49.046;8.468;2023-04-25T11:42:47;26.77;;;13.10;;
142;SDS011;63667;49.046;8.468;2023-04-25T11:45:15;27.67;;;12.30;;
142;SDS011;63667;49.046;8.468;2023-04-25T11:47:42;29.50;;;12.73;;
142;SDS011;63667;49.046;8.468;2023-04-25T11:50:08;24.30;;;12.53;;
142;SDS011;63667;49.046;8.468;2023-04-25T11:52:37;34.73;;;12.17;;
142;SDS011;63667;49.046;8.468;2023-04-25T11:55:08;25.87;;;11.77;;
142;SDS011;63667;49.046;8.468;2023-04-25T11:57:36;22.47;;;10.90;;
142;SDS011;63667;49.046;8.468;2023-04-25T12:02:35;25.80;;;12.37;;
142;SDS011;63667;49.046;8.468;2023-04-25T12:05:02;20.90;;;11.37;;
142;SDS011;63667;49.046;8.468;2023-04-25T12:07:29;24.47;;;11.50;;
142;SDS011;63667;49.046;8.468;2023-04-25T12:09:57;25.00;;;11.90;;
142;SDS011;63667;49.046;8.468;2023-04-25T12:12:27;24.77;;;12.13;;
142;SDS011;63667;49.046;8.468;2023-04-25T12:15:07;26.67;;;12.17;;
142;SDS011;63667;49.046;8.468;2023-04-25T12:17:35;27.40;;;11.90;;
142;SDS011;63667;49.046;8.468;2023-04-25T12:20:10;26.57;;;11.77;;
142;SDS011;63667;49.046;8.468;2023-04-25T12:22:40;25.33;;;12.10;;
142;SDS011;63667;49.046;8.468;2023-04-25T12:25:13;22.40;;;11.47;;
142;SDS011;63667;49.046;8.468;2023-04-25T12:27:40;22.30;;;11.33;;
142;SDS011;63667;49.046;8.468;2023-04-25T12:30:09;19.83;;;10.33;;
142;SDS011;63667;49.046;8.468;2023-04-25T12:32:37;23.43;;;10.83;;
142;SDS011;63667;49.046;8.468;2023-04-25T12:35:05;18.10;;;8.53;;
142;SDS011;63667;49.046;8.468;2023-04-25T12:37:33;16.67;;;9.47;;
142;SDS011;63667;49.046;8.468;2023-04-25T12:40:01;17.47;;;8.23;;
142;SDS011;63667;49.046;8.468;2023-04-25T12:42:30;16.33;;;8.70;;
142;SDS011;63667;49.046;8.468;2023-04-25T12:44:57;18.03;;;7.53;;
142;SDS011;63667;49.046;8.468;2023-04-25T12:47:25;12.87;;;8.40;;
142;SDS011;63667;49.046;8.468;2023-04-25T12:49:52;15.03;;;8.83;;
142;SDS011;63667;49.046;8.468;2023-04-25T12:52:19;15.93;;;8.17;;
142;SDS011;63667;49.046;8.468;2023-04-25T12:54:47;10.93;;;7.40;;
142;SDS011;63667;49.046;8.468;2023-04-25T12:57:14;16.80;;;8.17;;
142;SDS011;63667;49.046;8.468;2023-04-25T12:59:42;12.60;;;7.83;;
142;SDS011;63667;49.046;8.468;2023-04-25T13:02:09;12.90;;;7.50;;
142;SDS011;63667;49.046;8.468;2023-04-25T13:04:36;11.00;;;6.70;;
142;SDS011;63667;49.046;8.468;2023-04-25T13:07:04;11.30;;;7.00;;
142;SDS011;63667;49.046;8.468;2023-04-25T13:09:32;16.00;;;8.10;;
142;SDS011;63667;49.046;8.468;2023-04-25T13:11:59;14.43;;;8.80;;
142;SDS011;63667;49.046;8.468;2023-04-25T13:14:26;16.43;;;6.90;;
142;SDS011;63667;49.046;8.468;2023-04-25T13:16:54;12.87;;;7.27;;
142;SDS011;63667;49.046;8.468;2023-04-25T13:19:22;13.10;;;7.30;;
142;SDS011;63667;49.046;8.468;2023-04-25T13:21:48;12.53;;;6.50;;
142;SDS011;63667;49.046;8.468;2023-04-25T13:24:15;9.90;;;6.70;;
142;SDS011;63667;49.046;8.468;2023-04-25T13:26:43;12.77;;;6.97;;
142;SDS011;63667;49.046;8.468;2023-04-25T13:29:10;10.80;;;6.73;;
142;SDS011;63667;49.046;8.468;2023-04-25T13:31:37;8.77;;;6.20;;
142;SDS011;63667;49.046;8.468;2023-04-25T13:34:05;11.97;;;7.17;;
142;SDS011;63667;49.046;8.468;2023-04-25T13:36:32;11.77;;;6.80;;
142;SDS011;63667;49.046;8.468;2023-04-25T13:38:59;14.17;;;7.40;;
142;SDS011;63667;49.046;8.468;2023-04-25T13:41:27;12.00;;;6.90;;
142;SDS011;63667;49.046;8.468;2023-04-25T13:43:54;13.77;;;7.07;;
142;SDS011;63667;49.046;8.468;2023-04-25T13:46:22;9.90;;;7.03;;
142;SDS011;63667;49.046;8.468;2023-04-25T13:48:49;12.40;;;7.13;;
142;SDS011;63667;49.046;8.468;2023-04-25T13:51:17;11.70;;;7.50;;
142;SDS011;63667;49.046;8.468;2023-04-25T13:53:44;10.33;;;7.13;;
142;SDS011;63667;49.046;8.468;2023-04-25T13:56:12;11.37;;;7.07;;
142;SDS011;63667;49.046;8.468;2023-04-25T13:58:40;9.90;;;6.63;;
142;SDS011;63667;49.046;8.468;2023-04-25T14:01:07;12.40;;;6.80;;
142;SDS011;63667;49.046;8.468;2023-04-25T14:03:35;9.50;;;6.90;;
142;SDS011;63667;49.046;8.468;2023-04-25T14:06:02;10.23;;;7.00;;
142;SDS011;63667;49.046;8.468;2023-04-25T14:08:30;11.80;;;6.70;;
142;SDS011;63667;49.046;8.468;2023-04-25T14:10:57;11.33;;;7.00;;
142;SDS011;63667;49.046;8.468;2023-04-25T14:13:25;13.07;;;7.40;;
142;SDS011;63667;49.046;8.468;2023-04-25T14:15:52;10.13;;;6.50;;
142;SDS011;63667;49.046;8.468;2023-04-25T14:18:20;11.37;;;7.40;;
142;SDS011;63667;49.046;8.468;2023-04-25T14:20:47;12.13;;;7.10;;
142;SDS011;63667;49.046;8.468;2023-04-25T14:23:14;8.63;;;6.60;;
142;SDS011;63667;49.046;8.468;2023-04-25T14:25:43;10.50;;;6.70;;
142;SDS011;63667;49.046;8.468;2023-04-25T14:28:10;14.10;;;6.70;;
142;SDS011;63667;49.046;8.468;2023-04-25T14:30:37;14.47;;;6.90;;
142;SDS011;63667;49.046;8.468;2023-04-25T14:33:05;9.47;;;6.63;;
142;SDS011;63667;49.046;8.468;2023-04-25T14:35:32;12.33;;;6.60;;
142;SDS011;63667;49.046;8.468;2023-04-25T14:37:59;9.40;;;6.97;;
142;SDS011;63667;49.046;8.468;2023-04-25T14:40:26;9.20;;;6.30;;
142;SDS011;63667;49.046;8.468;2023-04-25T14:42:54;9.20;;;6.10;;
142;SDS011;63667;49.046;8.468;2023-04-25T14:45:21;9.80;;;6.50;;
142;SDS011;63667;49.046;8.468;2023-04-25T14:47:48;11.67;;;7.70;;
142;SDS011;63667;49.046;8.468;2023-04-25T14:50:15;11.00;;;6.17;;
142;SDS011;63667;49.046;8.468;2023-04-25T14:52:42;10.00;;;5.77;;
142;SDS011;63667;49.046;8.468;2023-04-25T14:55:10;11.80;;;6.30;;
142;SDS011;63667;49.046;8.468;2023-04-25T14:57:38;10.47;;;6.00;;
142;SDS011;63667;49.046;8.468;2023-04-25T15:00:05;14.43;;;6.50;;
142;SDS011;63667;49.046;8.468;2023-04-25T15:02:36;9.73;;;6.20;;
142;SDS011;63667;49.046;8.468;2023-04-25T15:05:03;12.30;;;6.50;;
142;SDS011;63667;49.046;8.468;2023-04-25T15:07:31;9.07;;;6.17;;
142;SDS011;63667;49.046;8.468;2023-04-25T15:10:00;9.73;;;6.53;;
142;SDS011;63667;49.046;8.468;2023-04-25T15:12:28;10.47;;;6.67;;